METAR Data
IDs: Format: Raw Decoded Include TAF

Data at: 1838 UTC 07 Dec 2021

KMIA 071753Z 28003KT 10SM FEW250 29/17 A3006 RMK AO2 SLP180 T02890172 10289 20206 58020